createdAt,value
2019-01-23T00:05:11.042Z,29.5
2019-01-23T00:10:34.694Z,29
2019-01-23T00:15:58.374Z,30.200001
2019-01-23T00:21:21.139Z,29.700001
2019-01-23T00:26:43.891Z,30.200001
2019-01-23T00:32:06.609Z,28.4
2019-01-23T00:37:29.313Z,30.4
2019-01-23T00:42:52.186Z,28.700001
2019-01-23T00:48:14.930Z,30.200001
2019-01-23T00:53:37.667Z,30.1
2019-01-23T00:59:01.958Z,28.799999
2019-01-23T01:04:24.793Z,29
2019-01-23T01:09:47.537Z,29.299999
2019-01-23T01:15:13.368Z,28.9
2019-01-23T01:20:34.301Z,26.700001
2019-01-23T01:25:57.147Z,26.9
2019-01-23T01:31:20.066Z,25.9
2019-01-23T01:36:42.869Z,27.200001
2019-01-23T01:42:05.626Z,26.299999
2019-01-23T01:47:28.438Z,26.700001
2019-01-23T01:52:51.192Z,26
2019-01-23T01:58:14.160Z,27.5
2019-01-23T02:03:37.939Z,26.5
2019-01-23T02:09:00.703Z,25.9
2019-01-23T02:14:23.527Z,26.700001
2019-01-23T02:19:46.274Z,28.200001
2019-01-23T02:25:09.067Z,27.5
2019-01-23T02:30:31.830Z,28
2019-01-23T02:35:54.581Z,26.799999
2019-01-23T02:41:17.427Z,28.1
2019-01-23T02:46:40.195Z,27.4
2019-01-23T02:52:03.855Z,27.4
2019-01-23T02:57:28.523Z,27.9
2019-01-23T03:02:51.334Z,27.1
2019-01-23T03:08:14.222Z,27.799999
2019-01-23T03:13:37.021Z,28.200001
2019-01-23T03:18:59.763Z,26.9
2019-01-23T03:24:22.615Z,29.4
2019-01-23T03:29:45.391Z,27.9
2019-01-23T03:35:08.767Z,26.9
2019-01-23T03:40:31.612Z,28.700001
2019-01-23T03:45:54.441Z,28.799999
2019-01-23T03:51:17.336Z,28
2019-01-23T03:56:40.230Z,27.6
2019-01-23T04:02:02.889Z,29.6
2019-01-23T04:07:25.702Z,28.1
2019-01-23T04:12:48.620Z,28.200001
2019-01-23T04:18:11.466Z,28.4
2019-01-23T04:23:34.223Z,28.5
2019-01-23T04:28:57.204Z,28.5
2019-01-23T04:34:19.976Z,28.5
2019-01-23T04:39:42.767Z,28.6
2019-01-23T04:45:05.484Z,28.5
2019-01-23T04:50:28.166Z,29
2019-01-23T04:55:51.103Z,29.1
2019-01-23T05:01:13.740Z,28
2019-01-23T05:06:36.448Z,29
2019-01-23T05:12:00.061Z,28.4
2019-01-23T05:17:22.878Z,29.1
2019-01-23T05:22:45.700Z,28.4
2019-01-23T05:28:08.563Z,29.6
2019-01-23T05:33:31.409Z,28.700001
2019-01-23T05:38:54.457Z,28.5
2019-01-23T05:44:17.108Z,29.6
2019-01-23T05:49:41.759Z,29.4
2019-01-23T05:55:05.458Z,29.299999
2019-01-23T06:00:28.197Z,28.6
2019-01-23T06:05:50.853Z,27.6
2019-01-23T06:11:13.592Z,27.299999
2019-01-23T06:16:36.316Z,28.299999
2019-01-23T06:21:58.482Z,28.200001
2019-01-23T06:27:21.156Z,29.200001
2019-01-23T06:32:43.890Z,27.4
2019-01-23T06:38:07.068Z,28.200001
2019-01-23T06:43:29.799Z,28.5
2019-01-23T06:48:53.697Z,26.799999
2019-01-23T06:54:16.392Z,27.200001
2019-01-23T06:59:39.129Z,27.799999
2019-01-23T07:05:01.798Z,27
2019-01-23T07:10:25.278Z,27.5
2019-01-23T07:15:47.973Z,27
2019-01-23T07:21:10.672Z,27
2019-01-23T07:26:33.726Z,37.299999
2019-01-23T07:31:56.777Z,26.299999
2019-01-23T07:37:19.851Z,27.299999
2019-01-23T07:42:42.813Z,27.6
2019-01-23T07:48:05.930Z,34.299999
2019-01-23T07:53:28.931Z,28.700001
2019-01-23T07:58:51.753Z,30.4
2019-01-23T08:04:14.408Z,32.900002
2019-01-23T08:09:38.404Z,30.6
2019-01-23T08:15:00.803Z,29.9
2019-01-23T08:20:23.601Z,28.9
2019-01-23T08:25:46.325Z,57
2019-01-23T08:31:09.054Z,26.1
2019-01-23T08:36:32.118Z,28.799999
2019-01-23T08:41:55.083Z,25.799999
2019-01-23T08:47:18.286Z,33.900002
2019-01-23T08:52:41.476Z,28.1
2019-01-23T08:58:04.758Z,29.200001
2019-01-23T09:03:27.853Z,27.200001
2019-01-23T09:08:50.967Z,25.200001
2019-01-23T09:14:13.965Z,27.299999
2019-01-23T09:19:36.964Z,25.9
2019-01-23T09:25:00.009Z,29.200001
2019-01-23T09:30:23.024Z,26.1
2019-01-23T09:35:46.214Z,27.5
2019-01-23T09:41:08.990Z,27.4
2019-01-23T09:46:32.227Z,27.4
2019-01-23T09:51:55.413Z,29.1
2019-01-23T09:57:18.030Z,28.299999
2019-01-23T10:02:40.695Z,29.1
2019-01-23T10:08:03.399Z,29
2019-01-23T10:13:26.620Z,30
2019-01-23T10:18:55.806Z,29
2019-01-23T10:24:11.977Z,28.9
2019-01-23T10:29:34.666Z,28.4
2019-01-23T10:34:57.417Z,28.200001
2019-01-23T10:40:21.885Z,31.4
2019-01-23T10:45:45.497Z,29.1
2019-01-23T10:51:08.199Z,27.700001
2019-01-23T10:56:32.725Z,28.5
2019-01-23T11:01:55.398Z,28.6
2019-01-23T11:07:18.500Z,26.6
2019-01-23T11:12:42.186Z,27.299999
2019-01-23T11:18:05.422Z,26.700001
2019-01-23T11:23:28.541Z,27.299999
2019-01-23T11:28:51.480Z,29.1
2019-01-23T11:34:14.698Z,30.299999
2019-01-23T11:39:37.581Z,26.799999
2019-01-23T11:45:00.234Z,27.1
2019-01-23T11:50:23.849Z,27.200001
2019-01-23T11:55:47.515Z,27.9
2019-01-23T12:01:11.154Z,27.6
2019-01-23T12:06:33.808Z,27.4
2019-01-23T12:11:57.472Z,27.5
2019-01-23T12:17:20.449Z,24.9
2019-01-23T12:22:43.468Z,25.6
2019-01-23T12:28:06.447Z,25
2019-01-23T12:33:29.522Z,27
2019-01-23T12:38:52.549Z,26.799999
2019-01-23T12:44:15.536Z,25.200001
2019-01-23T12:49:38.881Z,25.299999
2019-01-23T12:55:01.867Z,25.5
2019-01-23T13:00:25.244Z,22.9
2019-01-23T13:05:47.961Z,25.1
2019-01-23T13:11:10.703Z,25.5
2019-01-23T13:16:35.341Z,26.200001
2019-01-23T13:21:58.055Z,27.5
2019-01-23T13:27:21.346Z,28.700001
2019-01-23T13:32:44.129Z,35.200001
2019-01-23T13:38:07.072Z,28.200001
2019-01-23T13:43:30.054Z,27.9
2019-01-23T13:48:52.916Z,27
2019-01-23T13:54:15.942Z,27.299999
2019-01-23T13:59:39.336Z,26.799999
2019-01-23T14:05:02.707Z,27.799999
2019-01-23T14:10:25.729Z,33.900002
2019-01-23T14:15:48.677Z,29.5
2019-01-23T14:21:11.476Z,29.299999
2019-01-23T14:26:34.138Z,29.700001
2019-01-23T14:32:03.206Z,29.200001
2019-01-23T14:37:21.479Z,28.5
2019-01-23T14:42:44.267Z,29.1
2019-01-23T14:48:07.964Z,27.700001
2019-01-23T14:53:30.687Z,27.9
2019-01-23T14:58:53.701Z,26.6
2019-01-23T15:04:16.728Z,28.200001
2019-01-23T15:09:39.695Z,28.299999
2019-01-23T15:15:02.376Z,27.799999
2019-01-23T15:20:25.130Z,28.700001
2019-01-23T15:25:47.891Z,28.299999
2019-01-23T15:31:10.722Z,30
2019-01-23T15:36:33.461Z,29.5
2019-01-23T15:41:56.093Z,29.299999
2019-01-23T15:47:19.569Z,29
2019-01-23T15:52:42.221Z,29.700001
2019-01-23T15:58:04.922Z,29.799999
2019-01-23T16:03:27.700Z,29
2019-01-23T16:08:50.389Z,28.6
2019-01-23T16:14:13.380Z,29
2019-01-23T16:19:36.927Z,29
2019-01-23T16:25:01.673Z,27.9
2019-01-23T16:30:24.160Z,29
2019-01-23T16:35:47.262Z,27.5
2019-01-23T16:41:10.081Z,27.4
2019-01-23T16:46:33.623Z,28
2019-01-23T16:51:55.452Z,28
2019-01-23T16:57:18.365Z,26.700001
2019-01-23T17:02:41.060Z,27.1
2019-01-23T17:08:03.771Z,27.200001
2019-01-23T17:13:26.590Z,27.299999
2019-01-23T17:18:49.250Z,28.700001
2019-01-23T17:24:12.200Z,26.700001
2019-01-23T17:29:34.856Z,27.700001
2019-01-23T17:34:57.525Z,27.799999
2019-01-23T17:40:20.498Z,28.9
2019-01-23T17:45:43.575Z,28.4
2019-01-23T17:51:06.643Z,28.5
2019-01-23T17:56:30.139Z,27.299999
2019-01-23T18:01:54.280Z,28.799999
2019-01-23T18:07:17.428Z,27.200001
2019-01-23T18:12:40.409Z,29.6
2019-01-23T18:18:03.583Z,29.299999
2019-01-23T18:23:26.648Z,28.799999
2019-01-23T18:28:49.710Z,28.4
2019-01-23T18:34:12.347Z,28.9
2019-01-23T18:39:35.415Z,28.6
2019-01-23T18:44:58.560Z,31.200001
2019-01-23T18:50:22.328Z,28.4
2019-01-23T18:55:46.250Z,32.299999
2019-01-23T19:01:09.676Z,33
2019-01-23T19:06:35.773Z,32.299999
2019-01-23T19:11:58.828Z,32
2019-01-23T19:17:21.880Z,41.200001
2019-01-23T19:22:44.599Z,31.299999
2019-01-23T19:28:08.285Z,33.099998
2019-01-23T19:33:30.968Z,35
2019-01-23T19:38:53.749Z,35.700001
2019-01-23T19:44:16.655Z,33.799999
2019-01-23T19:49:39.844Z,34.599998
2019-01-23T19:55:02.627Z,34.799999
2019-01-23T20:00:25.619Z,36
2019-01-23T20:05:48.625Z,34.799999
2019-01-23T20:11:11.615Z,36.400002
2019-01-23T20:16:34.638Z,36.599998
2019-01-23T20:21:57.700Z,36
2019-01-23T20:27:20.579Z,38.099998
2019-01-23T20:32:43.662Z,36.799999
2019-01-23T20:38:06.475Z,37.900002
2019-01-23T20:43:30.062Z,37.900002
2019-01-23T20:48:52.889Z,38
2019-01-23T20:54:15.804Z,38.099998
2019-01-23T20:59:38.501Z,38
2019-01-23T21:05:01.558Z,41.200001
2019-01-23T21:10:24.396Z,41.599998
2019-01-23T21:15:47.296Z,39.799999
2019-01-23T21:21:10.555Z,40.799999
2019-01-23T21:26:33.786Z,39.299999
2019-01-23T21:31:58.151Z,41.5
2019-01-23T21:37:20.699Z,32.400002
2019-01-23T21:42:44.619Z,39.599998
2019-01-23T21:48:07.426Z,40.700001
2019-01-23T21:53:30.314Z,41
2019-01-23T21:58:53.057Z,40
2019-01-23T22:04:15.774Z,40.5
2019-01-23T22:09:38.505Z,40.700001
2019-01-23T22:15:01.235Z,41.099998
2019-01-23T22:20:23.989Z,43.200001
2019-01-23T22:25:46.640Z,40.200001
2019-01-23T22:31:09.337Z,42.599998
2019-01-23T22:36:32.053Z,43.200001
2019-01-23T22:41:54.708Z,44.200001
2019-01-23T22:47:17.386Z,44.299999
2019-01-23T22:52:40.151Z,44.900002
2019-01-23T22:58:03.619Z,45.299999
2019-01-23T23:03:26.264Z,45.200001
2019-01-23T23:08:50.496Z,47.299999
2019-01-23T23:14:14.146Z,46.400002
2019-01-23T23:19:37.011Z,47.599998
2019-01-23T23:24:59.971Z,47.299999
2019-01-23T23:30:22.832Z,47.900002
2019-01-23T23:35:46.487Z,47.900002
2019-01-23T23:41:10.018Z,47
2019-01-23T23:46:32.782Z,47
2019-01-23T23:51:55.467Z,49.5
2019-01-23T23:57:18.280Z,48.799999
